sensor_id;sensor_type;location;lat;lon;timestamp;P1;durP1;ratioP1;P2;durP2;ratioP2
71941;SDS011;59997;53.300;-6.260;2023-09-18T00:00:42;1.63;;;0.40;;
71941;SDS011;59997;53.300;-6.260;2023-09-18T00:03:20;1.60;;;0.50;;
71941;SDS011;59997;53.300;-6.260;2023-09-18T00:05:49;1.70;;;0.25;;
71941;SDS011;59997;53.300;-6.260;2023-09-18T00:08:16;1.58;;;0.40;;
71941;SDS011;59997;53.300;-6.260;2023-09-18T00:10:42;1.20;;;0.30;;
71941;SDS011;59997;53.300;-6.260;2023-09-18T00:13:12;1.50;;;0.55;;
71941;SDS011;59997;53.300;-6.260;2023-09-18T00:15:37;2.37;;;0.87;;
71941;SDS011;59997;53.300;-6.260;2023-09-18T00:18:03;5.93;;;0.95;;
71941;SDS011;59997;53.300;-6.260;2023-09-18T00:20:29;1.55;;;0.63;;
71941;SDS011;59997;53.300;-6.260;2023-09-18T00:22:55;1.10;;;0.20;;
71941;SDS011;59997;53.300;-6.260;2023-09-18T00:25:24;1.80;;;0.70;;
71941;SDS011;59997;53.300;-6.260;2023-09-18T00:27:49;1.60;;;0.50;;
71941;SDS011;59997;53.300;-6.260;2023-09-18T00:30:16;1.20;;;0.20;;
71941;SDS011;59997;53.300;-6.260;2023-09-18T00:32:42;1.55;;;0.50;;
71941;SDS011;59997;53.300;-6.260;2023-09-18T00:35:08;1.30;;;0.30;;
71941;SDS011;59997;53.300;-6.260;2023-09-18T00:37:33;1.15;;;0.20;;
71941;SDS011;59997;53.300;-6.260;2023-09-18T00:39:59;1.67;;;0.50;;
71941;SDS011;59997;53.300;-6.260;2023-09-18T00:42:24;1.07;;;0.20;;
71941;SDS011;59997;53.300;-6.260;2023-09-18T00:44:50;2.03;;;0.45;;
71941;SDS011;59997;53.300;-6.260;2023-09-18T00:47:15;2.13;;;0.60;;
71941;SDS011;59997;53.300;-6.260;2023-09-18T00:49:43;1.60;;;0.43;;
71941;SDS011;59997;53.300;-6.260;2023-09-18T00:52:11;1.60;;;0.55;;
71941;SDS011;59997;53.300;-6.260;2023-09-18T00:54:37;1.30;;;0.30;;
71941;SDS011;59997;53.300;-6.260;2023-09-18T00:57:04;5.53;;;1.13;;
71941;SDS011;59997;53.300;-6.260;2023-09-18T00:59:30;1.92;;;0.55;;
71941;SDS011;59997;53.300;-6.260;2023-09-18T01:01:56;1.40;;;0.40;;
71941;SDS011;59997;53.300;-6.260;2023-09-18T01:04:22;1.00;;;0.20;;
71941;SDS011;59997;53.300;-6.260;2023-09-18T01:06:50;1.45;;;0.30;;
71941;SDS011;59997;53.300;-6.260;2023-09-18T01:09:18;1.57;;;0.30;;
71941;SDS011;59997;53.300;-6.260;2023-09-18T01:17:17;1.25;;;0.20;;
71941;SDS011;59997;53.300;-6.260;2023-09-18T01:19:44;4.63;;;1.03;;
71941;SDS011;59997;53.300;-6.260;2023-09-18T01:22:12;1.60;;;0.30;;
71941;SDS011;59997;53.300;-6.260;2023-09-18T01:24:42;1.27;;;0.20;;
71941;SDS011;59997;53.300;-6.260;2023-09-18T01:27:13;1.00;;;0.20;;
71941;SDS011;59997;53.300;-6.260;2023-09-18T01:29:42;1.55;;;0.40;;
71941;SDS011;59997;53.300;-6.260;2023-09-18T01:32:18;1.10;;;0.20;;
71941;SDS011;59997;53.300;-6.260;2023-09-18T01:34:50;1.92;;;0.70;;
71941;SDS011;59997;53.300;-6.260;2023-09-18T01:37:19;1.73;;;0.30;;
71941;SDS011;59997;53.300;-6.260;2023-09-18T01:39:47;1.03;;;0.20;;
71941;SDS011;59997;53.300;-6.260;2023-09-18T01:42:14;1.35;;;0.40;;
71941;SDS011;59997;53.300;-6.260;2023-09-18T01:44:40;1.83;;;0.45;;
71941;SDS011;59997;53.300;-6.260;2023-09-18T01:47:06;0.93;;;0.10;;
71941;SDS011;59997;53.300;-6.260;2023-09-18T01:49:34;1.48;;;0.30;;
71941;SDS011;59997;53.300;-6.260;2023-09-18T01:52:01;1.20;;;0.20;;
71941;SDS011;59997;53.300;-6.260;2023-09-18T01:54:27;1.15;;;0.20;;
71941;SDS011;59997;53.300;-6.260;2023-09-18T01:56:53;2.13;;;1.30;;
71941;SDS011;59997;53.300;-6.260;2023-09-18T01:59:19;1.63;;;0.50;;
71941;SDS011;59997;53.300;-6.260;2023-09-18T02:01:45;1.73;;;0.60;;
71941;SDS011;59997;53.300;-6.260;2023-09-18T02:04:11;1.10;;;0.20;;
71941;SDS011;59997;53.300;-6.260;2023-09-18T02:06:36;1.40;;;0.20;;
71941;SDS011;59997;53.300;-6.260;2023-09-18T02:09:02;2.17;;;0.70;;
71941;SDS011;59997;53.300;-6.260;2023-09-18T02:11:33;1.10;;;0.20;;
71941;SDS011;59997;53.300;-6.260;2023-09-18T02:14:00;1.77;;;0.40;;
71941;SDS011;59997;53.300;-6.260;2023-09-18T02:16:30;2.85;;;1.55;;
71941;SDS011;59997;53.300;-6.260;2023-09-18T02:18:56;2.33;;;0.68;;
71941;SDS011;59997;53.300;-6.260;2023-09-18T02:21:22;3.10;;;0.70;;
71941;SDS011;59997;53.300;-6.260;2023-09-18T02:23:49;1.33;;;0.43;;
71941;SDS011;59997;53.300;-6.260;2023-09-18T02:26:18;1.60;;;0.30;;
71941;SDS011;59997;53.300;-6.260;2023-09-18T02:28:47;1.03;;;0.10;;
71941;SDS011;59997;53.300;-6.260;2023-09-18T02:31:13;1.85;;;0.55;;
71941;SDS011;59997;53.300;-6.260;2023-09-18T02:33:39;1.80;;;0.30;;
71941;SDS011;59997;53.300;-6.260;2023-09-18T02:36:06;1.90;;;0.70;;
71941;SDS011;59997;53.300;-6.260;2023-09-18T02:38:32;1.55;;;0.38;;
71941;SDS011;59997;53.300;-6.260;2023-09-18T02:40:58;1.65;;;0.60;;
71941;SDS011;59997;53.300;-6.260;2023-09-18T02:43:24;1.60;;;0.43;;
71941;SDS011;59997;53.300;-6.260;2023-09-18T02:45:50;1.20;;;0.20;;
71941;SDS011;59997;53.300;-6.260;2023-09-18T02:48:16;1.40;;;0.20;;
71941;SDS011;59997;53.300;-6.260;2023-09-18T02:50:42;1.92;;;0.40;;
71941;SDS011;59997;53.300;-6.260;2023-09-18T02:53:11;0.93;;;0.10;;
71941;SDS011;59997;53.300;-6.260;2023-09-18T02:55:43;1.30;;;0.20;;
71941;SDS011;59997;53.300;-6.260;2023-09-18T02:58:09;2.53;;;1.23;;
71941;SDS011;59997;53.300;-6.260;2023-09-18T03:00:40;1.30;;;0.20;;
71941;SDS011;59997;53.300;-6.260;2023-09-18T03:03:07;1.63;;;0.38;;
71941;SDS011;59997;53.300;-6.260;2023-09-18T03:05:33;1.57;;;0.53;;
71941;SDS011;59997;53.300;-6.260;2023-09-18T03:07:58;1.20;;;0.20;;
71941;SDS011;59997;53.300;-6.260;2023-09-18T03:10:24;1.87;;;0.43;;
71941;SDS011;59997;53.300;-6.260;2023-09-18T03:12:49;1.67;;;0.40;;
71941;SDS011;59997;53.300;-6.260;2023-09-18T03:15:15;2.77;;;0.57;;
71941;SDS011;59997;53.300;-6.260;2023-09-18T03:17:40;1.63;;;0.65;;
71941;SDS011;59997;53.300;-6.260;2023-09-18T03:20:07;2.22;;;0.50;;
71941;SDS011;59997;53.300;-6.260;2023-09-18T03:22:33;1.95;;;0.60;;
71941;SDS011;59997;53.300;-6.260;2023-09-18T03:24:59;1.30;;;0.20;;
71941;SDS011;59997;53.300;-6.260;2023-09-18T03:27:25;1.67;;;0.32;;
71941;SDS011;59997;53.300;-6.260;2023-09-18T03:29:54;1.73;;;0.50;;
71941;SDS011;59997;53.300;-6.260;2023-09-18T03:32:20;1.55;;;0.40;;
71941;SDS011;59997;53.300;-6.260;2023-09-18T03:34:46;1.00;;;0.20;;
71941;SDS011;59997;53.300;-6.260;2023-09-18T03:37:11;1.17;;;0.30;;
71941;SDS011;59997;53.300;-6.260;2023-09-18T03:39:37;1.27;;;0.20;;
71941;SDS011;59997;53.300;-6.260;2023-09-18T03:42:02;1.27;;;0.20;;
71941;SDS011;59997;53.300;-6.260;2023-09-18T03:44:28;1.27;;;0.20;;
71941;SDS011;59997;53.300;-6.260;2023-09-18T03:46:53;0.95;;;0.13;;
71941;SDS011;59997;53.300;-6.260;2023-09-18T03:49:19;1.53;;;0.30;;
71941;SDS011;59997;53.300;-6.260;2023-09-18T03:51:44;1.03;;;0.20;;
71941;SDS011;59997;53.300;-6.260;2023-09-18T03:54:10;1.02;;;0.20;;
71941;SDS011;59997;53.300;-6.260;2023-09-18T03:56:35;1.13;;;0.20;;
71941;SDS011;59997;53.300;-6.260;2023-09-18T03:59:01;1.33;;;0.27;;
71941;SDS011;59997;53.300;-6.260;2023-09-18T04:01:27;1.10;;;0.15;;
71941;SDS011;59997;53.300;-6.260;2023-09-18T04:03:53;1.20;;;0.20;;
71941;SDS011;59997;53.300;-6.260;2023-09-18T04:06:20;1.27;;;0.20;;
71941;SDS011;59997;53.300;-6.260;2023-09-18T04:08:46;0.93;;;0.10;;
71941;SDS011;59997;53.300;-6.260;2023-09-18T04:11:12;1.65;;;0.50;;
71941;SDS011;59997;53.300;-6.260;2023-09-18T04:13:37;1.60;;;0.30;;
71941;SDS011;59997;53.300;-6.260;2023-09-18T04:16:04;1.50;;;0.20;;
71941;SDS011;59997;53.300;-6.260;2023-09-18T04:18:29;1.53;;;0.20;;
71941;SDS011;59997;53.300;-6.260;2023-09-18T04:20:55;2.20;;;0.52;;
71941;SDS011;59997;53.300;-6.260;2023-09-18T04:23:25;1.00;;;0.10;;
71941;SDS011;59997;53.300;-6.260;2023-09-18T04:25:52;2.15;;;0.68;;
71941;SDS011;59997;53.300;-6.260;2023-09-18T04:28:19;1.33;;;0.30;;
71941;SDS011;59997;53.300;-6.260;2023-09-18T04:30:46;1.30;;;0.20;;
71941;SDS011;59997;53.300;-6.260;2023-09-18T04:33:15;1.13;;;0.20;;
71941;SDS011;59997;53.300;-6.260;2023-09-18T04:35:41;1.38;;;0.30;;
71941;SDS011;59997;53.300;-6.260;2023-09-18T04:38:07;1.00;;;0.10;;
71941;SDS011;59997;53.300;-6.260;2023-09-18T04:40:36;0.70;;;0.10;;
71941;SDS011;59997;53.300;-6.260;2023-09-18T04:43:02;0.85;;;0.10;;
71941;SDS011;59997;53.300;-6.260;2023-09-18T04:45:31;1.05;;;0.20;;
71941;SDS011;59997;53.300;-6.260;2023-09-18T04:47:57;1.27;;;0.20;;
71941;SDS011;59997;53.300;-6.260;2023-09-18T04:50:23;2.30;;;1.33;;
71941;SDS011;59997;53.300;-6.260;2023-09-18T04:52:49;1.00;;;0.20;;
71941;SDS011;59997;53.300;-6.260;2023-09-18T04:55:17;1.05;;;0.20;;
71941;SDS011;59997;53.300;-6.260;2023-09-18T04:57:42;1.20;;;0.20;;
71941;SDS011;59997;53.300;-6.260;2023-09-18T05:00:08;1.13;;;0.20;;
71941;SDS011;59997;53.300;-6.260;2023-09-18T05:02:39;1.40;;;0.23;;
71941;SDS011;59997;53.300;-6.260;2023-09-18T05:05:05;1.15;;;0.17;;
71941;SDS011;59997;53.300;-6.260;2023-09-18T05:07:34;1.15;;;0.20;;
71941;SDS011;59997;53.300;-6.260;2023-09-18T05:10:00;1.08;;;0.20;;
71941;SDS011;59997;53.300;-6.260;2023-09-18T05:12:25;1.50;;;0.77;;
71941;SDS011;59997;53.300;-6.260;2023-09-18T05:14:51;1.10;;;0.20;;
71941;SDS011;59997;53.300;-6.260;2023-09-18T05:17:17;0.97;;;0.17;;
71941;SDS011;59997;53.300;-6.260;2023-09-18T05:19:43;1.13;;;0.20;;
71941;SDS011;59997;53.300;-6.260;2023-09-18T05:22:09;0.98;;;0.20;;
71941;SDS011;59997;53.300;-6.260;2023-09-18T05:24:39;1.07;;;0.10;;
71941;SDS011;59997;53.300;-6.260;2023-09-18T05:27:04;1.27;;;0.20;;
71941;SDS011;59997;53.300;-6.260;2023-09-18T05:29:33;0.98;;;0.22;;
71941;SDS011;59997;53.300;-6.260;2023-09-18T05:32:01;1.10;;;0.20;;
71941;SDS011;59997;53.300;-6.260;2023-09-18T05:34:27;1.02;;;0.10;;
71941;SDS011;59997;53.300;-6.260;2023-09-18T05:36:52;2.20;;;0.27;;
71941;SDS011;59997;53.300;-6.260;2023-09-18T05:39:18;1.13;;;0.30;;
71941;SDS011;59997;53.300;-6.260;2023-09-18T05:41:43;0.82;;;0.20;;
71941;SDS011;59997;53.300;-6.260;2023-09-18T05:44:09;0.80;;;0.10;;
71941;SDS011;59997;53.300;-6.260;2023-09-18T05:46:35;1.48;;;0.63;;
71941;SDS011;59997;53.300;-6.260;2023-09-18T05:49:01;1.10;;;0.20;;
71941;SDS011;59997;53.300;-6.260;2023-09-18T05:51:27;1.20;;;0.20;;
71941;SDS011;59997;53.300;-6.260;2023-09-18T05:53:53;1.10;;;0.20;;
71941;SDS011;59997;53.300;-6.260;2023-09-18T05:56:18;1.55;;;0.55;;
71941;SDS011;59997;53.300;-6.260;2023-09-18T05:58:44;0.90;;;0.10;;
71941;SDS011;59997;53.300;-6.260;2023-09-18T06:01:09;1.10;;;0.17;;
71941;SDS011;59997;53.300;-6.260;2023-09-18T06:03:35;1.27;;;0.20;;
71941;SDS011;59997;53.300;-6.260;2023-09-18T06:06:04;0.97;;;0.20;;
71941;SDS011;59997;53.300;-6.260;2023-09-18T06:08:30;1.10;;;0.10;;
71941;SDS011;59997;53.300;-6.260;2023-09-18T06:10:57;1.15;;;0.20;;
71941;SDS011;59997;53.300;-6.260;2023-09-18T06:13:24;1.05;;;0.20;;
71941;SDS011;59997;53.300;-6.260;2023-09-18T06:15:50;1.00;;;0.20;;
71941;SDS011;59997;53.300;-6.260;2023-09-18T06:18:18;0.93;;;0.20;;
71941;SDS011;59997;53.300;-6.260;2023-09-18T06:20:45;1.17;;;0.20;;
71941;SDS011;59997;53.300;-6.260;2023-09-18T06:23:11;1.00;;;0.20;;
71941;SDS011;59997;53.300;-6.260;2023-09-18T06:25:38;1.27;;;0.20;;
71941;SDS011;59997;53.300;-6.260;2023-09-18T06:28:04;1.02;;;0.13;;
71941;SDS011;59997;53.300;-6.260;2023-09-18T06:30:30;0.90;;;0.20;;
71941;SDS011;59997;53.300;-6.260;2023-09-18T06:32:59;1.23;;;0.20;;
71941;SDS011;59997;53.300;-6.260;2023-09-18T06:35:26;1.05;;;0.20;;
71941;SDS011;59997;53.300;-6.260;2023-09-18T06:37:51;1.23;;;0.20;;
71941;SDS011;59997;53.300;-6.260;2023-09-18T06:40:19;1.10;;;0.20;;
71941;SDS011;59997;53.300;-6.260;2023-09-18T06:42:45;1.03;;;0.20;;
71941;SDS011;59997;53.300;-6.260;2023-09-18T06:45:10;1.08;;;0.20;;
71941;SDS011;59997;53.300;-6.260;2023-09-18T06:47:36;1.20;;;0.20;;
71941;SDS011;59997;53.300;-6.260;2023-09-18T06:50:02;1.10;;;0.20;;
71941;SDS011;59997;53.300;-6.260;2023-09-18T06:52:30;1.17;;;0.20;;
71941;SDS011;59997;53.300;-6.260;2023-09-18T06:54:55;2.47;;;0.83;;
71941;SDS011;59997;53.300;-6.260;2023-09-18T06:57:22;0.90;;;0.10;;
71941;SDS011;59997;53.300;-6.260;2023-09-18T06:59:48;1.00;;;0.20;;
71941;SDS011;59997;53.300;-6.260;2023-09-18T07:02:14;0.80;;;0.20;;
71941;SDS011;59997;53.300;-6.260;2023-09-18T07:04:40;1.15;;;0.20;;
71941;SDS011;59997;53.300;-6.260;2023-09-18T07:07:10;0.93;;;0.20;;
71941;SDS011;59997;53.300;-6.260;2023-09-18T07:09:42;1.20;;;0.22;;
71941;SDS011;59997;53.300;-6.260;2023-09-18T07:12:08;0.70;;;0.10;;
71941;SDS011;59997;53.300;-6.260;2023-09-18T07:14:35;1.05;;;0.20;;
71941;SDS011;59997;53.300;-6.260;2023-09-18T07:17:01;0.95;;;0.20;;
71941;SDS011;59997;53.300;-6.260;2023-09-18T07:19:27;1.02;;;0.20;;
71941;SDS011;59997;53.300;-6.260;2023-09-18T07:21:53;1.13;;;0.20;;
71941;SDS011;59997;53.300;-6.260;2023-09-18T07:24:18;0.90;;;0.10;;
71941;SDS011;59997;53.300;-6.260;2023-09-18T07:26:45;1.00;;;0.20;;
71941;SDS011;59997;53.300;-6.260;2023-09-18T07:29:15;1.00;;;0.20;;
71941;SDS011;59997;53.300;-6.260;2023-09-18T07:31:42;1.50;;;0.20;;
71941;SDS011;59997;53.300;-6.260;2023-09-18T07:34:08;1.50;;;0.20;;
71941;SDS011;59997;53.300;-6.260;2023-09-18T07:36:36;1.33;;;0.20;;
71941;SDS011;59997;53.300;-6.260;2023-09-18T07:39:02;1.20;;;0.20;;
71941;SDS011;59997;53.300;-6.260;2023-09-18T07:41:29;1.30;;;0.20;;
71941;SDS011;59997;53.300;-6.260;2023-09-18T07:43:55;1.35;;;0.20;;
71941;SDS011;59997;53.300;-6.260;2023-09-18T07:46:22;1.10;;;0.13;;
71941;SDS011;59997;53.300;-6.260;2023-09-18T07:48:47;1.00;;;0.17;;
71941;SDS011;59997;53.300;-6.260;2023-09-18T07:51:13;0.90;;;0.10;;
71941;SDS011;59997;53.300;-6.260;2023-09-18T07:53:41;1.42;;;0.28;;
71941;SDS011;59997;53.300;-6.260;2023-09-18T07:56:07;1.17;;;0.20;;
71941;SDS011;59997;53.300;-6.260;2023-09-18T07:58:32;1.57;;;0.20;;
71941;SDS011;59997;53.300;-6.260;2023-09-18T08:00:58;1.98;;;0.30;;
71941;SDS011;59997;53.300;-6.260;2023-09-18T08:03:24;2.58;;;0.50;;
71941;SDS011;59997;53.300;-6.260;2023-09-18T08:05:53;2.50;;;0.50;;
71941;SDS011;59997;53.300;-6.260;2023-09-18T08:08:20;2.47;;;0.50;;
71941;SDS011;59997;53.300;-6.260;2023-09-18T08:10:46;2.38;;;0.40;;
71941;SDS011;59997;53.300;-6.260;2023-09-18T08:13:13;2.80;;;0.80;;
71941;SDS011;59997;53.300;-6.260;2023-09-18T08:15:39;3.00;;;0.70;;
71941;SDS011;59997;53.300;-6.260;2023-09-18T08:18:04;2.30;;;0.40;;
71941;SDS011;59997;53.300;-6.260;2023-09-18T08:20:30;2.67;;;0.57;;
71941;SDS011;59997;53.300;-6.260;2023-09-18T08:22:56;3.73;;;1.90;;
71941;SDS011;59997;53.300;-6.260;2023-09-18T08:25:21;2.78;;;0.60;;
71941;SDS011;59997;53.300;-6.260;2023-09-18T08:27:47;3.00;;;0.67;;
71941;SDS011;59997;53.300;-6.260;2023-09-18T08:30:14;4.68;;;1.63;;
71941;SDS011;59997;53.300;-6.260;2023-09-18T08:32:40;2.80;;;0.57;;
71941;SDS011;59997;53.300;-6.260;2023-09-18T08:35:07;5.50;;;0.90;;
71941;SDS011;59997;53.300;-6.260;2023-09-18T08:37:33;2.70;;;0.60;;
71941;SDS011;59997;53.300;-6.260;2023-09-18T08:39:59;2.70;;;0.50;;
71941;SDS011;59997;53.300;-6.260;2023-09-18T08:42:35;2.40;;;0.50;;
71941;SDS011;59997;53.300;-6.260;2023-09-18T08:45:04;3.03;;;0.70;;
71941;SDS011;59997;53.300;-6.260;2023-09-18T08:47:37;9.67;;;2.47;;
71941;SDS011;59997;53.300;-6.260;2023-09-18T08:50:05;9.85;;;1.75;;
71941;SDS011;59997;53.300;-6.260;2023-09-18T08:52:32;14.50;;;2.05;;
71941;SDS011;59997;53.300;-6.260;2023-09-18T08:54:59;9.20;;;1.90;;
71941;SDS011;59997;53.300;-6.260;2023-09-18T08:57:26;7.65;;;1.65;;
71941;SDS011;59997;53.300;-6.260;2023-09-18T08:59:54;11.27;;;1.60;;
71941;SDS011;59997;53.300;-6.260;2023-09-18T09:02:20;9.57;;;1.50;;
71941;SDS011;59997;53.300;-6.260;2023-09-18T09:04:46;7.37;;;1.40;;
71941;SDS011;59997;53.300;-6.260;2023-09-18T09:07:11;12.30;;;1.80;;
71941;SDS011;59997;53.300;-6.260;2023-09-18T09:09:37;9.53;;;1.90;;
71941;SDS011;59997;53.300;-6.260;2023-09-18T09:12:03;10.45;;;1.75;;
71941;SDS011;59997;53.300;-6.260;2023-09-18T09:14:29;10.63;;;1.98;;
71941;SDS011;59997;53.300;-6.260;2023-09-18T09:16:55;8.13;;;1.47;;
71941;SDS011;59997;53.300;-6.260;2023-09-18T09:19:31;11.27;;;2.20;;
71941;SDS011;59997;53.300;-6.260;2023-09-18T09:22:00;15.38;;;3.38;;
71941;SDS011;59997;53.300;-6.260;2023-09-18T09:24:42;12.55;;;3.15;;
71941;SDS011;59997;53.300;-6.260;2023-09-18T09:27:09;11.83;;;2.43;;
71941;SDS011;59997;53.300;-6.260;2023-09-18T09:29:36;18.70;;;5.10;;
71941;SDS011;59997;53.300;-6.260;2023-09-18T09:32:11;11.98;;;2.47;;
71941;SDS011;59997;53.300;-6.260;2023-09-18T09:34:42;15.18;;;3.08;;
71941;SDS011;59997;53.300;-6.260;2023-09-18T09:37:08;8.30;;;1.58;;
71941;SDS011;59997;53.300;-6.260;2023-09-18T09:39:51;13.33;;;3.17;;
71941;SDS011;59997;53.300;-6.260;2023-09-18T09:42:17;13.07;;;2.72;;
71941;SDS011;59997;53.300;-6.260;2023-09-18T09:44:55;23.45;;;4.53;;
71941;SDS011;59997;53.300;-6.260;2023-09-18T09:47:26;12.23;;;2.20;;
71941;SDS011;59997;53.300;-6.260;2023-09-18T09:49:51;7.33;;;1.90;;
71941;SDS011;59997;53.300;-6.260;2023-09-18T09:52:18;15.82;;;3.78;;
71941;SDS011;59997;53.300;-6.260;2023-09-18T09:54:46;11.65;;;2.30;;
71941;SDS011;59997;53.300;-6.260;2023-09-18T09:57:12;11.90;;;2.20;;
71941;SDS011;59997;53.300;-6.260;2023-09-18T09:59:37;11.03;;;2.00;;
71941;SDS011;59997;53.300;-6.260;2023-09-18T10:02:03;11.98;;;2.50;;
71941;SDS011;59997;53.300;-6.260;2023-09-18T10:04:29;10.67;;;2.20;;
71941;SDS011;59997;53.300;-6.260;2023-09-18T10:07:06;10.30;;;2.42;;
71941;SDS011;59997;53.300;-6.260;2023-09-18T10:09:38;12.13;;;2.10;;
71941;SDS011;59997;53.300;-6.260;2023-09-18T10:12:10;8.45;;;1.75;;
71941;SDS011;59997;53.300;-6.260;2023-09-18T10:14:37;11.80;;;2.38;;
71941;SDS011;59997;53.300;-6.260;2023-09-18T10:17:08;14.00;;;2.17;;
71941;SDS011;59997;53.300;-6.260;2023-09-18T10:19:45;14.23;;;2.42;;
71941;SDS011;59997;53.300;-6.260;2023-09-18T10:22:21;17.27;;;3.10;;
71941;SDS011;59997;53.300;-6.260;2023-09-18T10:25:03;12.10;;;1.90;;
71941;SDS011;59997;53.300;-6.260;2023-09-18T10:27:37;8.02;;;2.05;;
71941;SDS011;59997;53.300;-6.260;2023-09-18T10:30:06;8.97;;;1.50;;
71941;SDS011;59997;53.300;-6.260;2023-09-18T10:32:37;11.38;;;2.03;;
71941;SDS011;59997;53.300;-6.260;2023-09-18T10:35:05;10.63;;;1.92;;
71941;SDS011;59997;53.300;-6.260;2023-09-18T10:37:33;13.15;;;1.48;;
71941;SDS011;59997;53.300;-6.260;2023-09-18T10:39:59;8.35;;;1.40;;
71941;SDS011;59997;53.300;-6.260;2023-09-18T10:42:25;13.17;;;2.63;;
71941;SDS011;59997;53.300;-6.260;2023-09-18T10:44:53;11.30;;;2.13;;
71941;SDS011;59997;53.300;-6.260;2023-09-18T10:47:19;11.05;;;2.08;;
71941;SDS011;59997;53.300;-6.260;2023-09-18T10:49:45;11.10;;;1.90;;
71941;SDS011;59997;53.300;-6.260;2023-09-18T10:52:12;12.23;;;2.17;;
71941;SDS011;59997;53.300;-6.260;2023-09-18T10:54:38;8.27;;;1.60;;
71941;SDS011;59997;53.300;-6.260;2023-09-18T10:57:05;9.23;;;1.80;;
71941;SDS011;59997;53.300;-6.260;2023-09-18T10:59:31;11.30;;;1.63;;
71941;SDS011;59997;53.300;-6.260;2023-09-18T11:02:01;10.02;;;1.60;;
71941;SDS011;59997;53.300;-6.260;2023-09-18T11:04:30;8.47;;;1.50;;
71941;SDS011;59997;53.300;-6.260;2023-09-18T11:09:26;9.63;;;1.90;;
71941;SDS011;59997;53.300;-6.260;2023-09-18T11:15:08;8.20;;;1.80;;
71941;SDS011;59997;53.300;-6.260;2023-09-18T11:17:30;13.20;;;1.60;;
71941;SDS011;59997;53.300;-6.260;2023-09-18T11:20:07;7.95;;;1.58;;
71941;SDS011;59997;53.300;-6.260;2023-09-18T11:22:46;8.13;;;1.27;;
71941;SDS011;59997;53.300;-6.260;2023-09-18T11:28:00;12.25;;;2.00;;
71941;SDS011;59997;53.300;-6.260;2023-09-18T11:30:28;7.23;;;1.30;;
71941;SDS011;59997;53.300;-6.260;2023-09-18T11:32:54;9.10;;;1.50;;
71941;SDS011;59997;53.300;-6.260;2023-09-18T11:35:20;8.15;;;1.23;;
71941;SDS011;59997;53.300;-6.260;2023-09-18T11:37:46;7.43;;;2.13;;
71941;SDS011;59997;53.300;-6.260;2023-09-18T11:40:31;8.97;;;1.87;;
71941;SDS011;59997;53.300;-6.260;2023-09-18T11:43:19;7.68;;;1.30;;
71941;SDS011;59997;53.300;-6.260;2023-09-18T11:45:55;8.23;;;1.80;;
71941;SDS011;59997;53.300;-6.260;2023-09-18T11:48:25;9.00;;;1.40;;
71941;SDS011;59997;53.300;-6.260;2023-09-18T11:50:56;7.15;;;1.48;;
71941;SDS011;59997;53.300;-6.260;2023-09-18T11:53:23;14.05;;;2.20;;
71941;SDS011;59997;53.300;-6.260;2023-09-18T11:55:49;8.32;;;1.42;;
71941;SDS011;59997;53.300;-6.260;2023-09-18T11:58:15;10.70;;;1.90;;
71941;SDS011;59997;53.300;-6.260;2023-09-18T12:00:40;7.20;;;1.80;;
71941;SDS011;59997;53.300;-6.260;2023-09-18T12:03:22;9.57;;;1.63;;
71941;SDS011;59997;53.300;-6.260;2023-09-18T12:05:52;13.07;;;1.90;;
71941;SDS011;59997;53.300;-6.260;2023-09-18T12:08:20;7.03;;;1.45;;
71941;SDS011;59997;53.300;-6.260;2023-09-18T12:10:50;9.90;;;2.05;;
71941;SDS011;59997;53.300;-6.260;2023-09-18T12:13:16;6.18;;;1.80;;
71941;SDS011;59997;53.300;-6.260;2023-09-18T12:15:42;8.00;;;1.70;;
71941;SDS011;59997;53.300;-6.260;2023-09-18T12:18:09;9.60;;;1.77;;
71941;SDS011;59997;53.300;-6.260;2023-09-18T12:20:48;9.55;;;1.10;;
71941;SDS011;59997;53.300;-6.260;2023-09-18T12:23:14;9.13;;;1.58;;
71941;SDS011;59997;53.300;-6.260;2023-09-18T12:25:46;8.60;;;0.98;;
71941;SDS011;59997;53.300;-6.260;2023-09-18T12:28:14;7.60;;;1.07;;
71941;SDS011;59997;53.300;-6.260;2023-09-18T12:30:43;7.88;;;1.10;;
71941;SDS011;59997;53.300;-6.260;2023-09-18T12:33:11;7.75;;;1.10;;
71941;SDS011;59997;53.300;-6.260;2023-09-18T12:35:40;5.68;;;0.77;;
71941;SDS011;59997;53.300;-6.260;2023-09-18T12:38:15;6.38;;;1.00;;
71941;SDS011;59997;53.300;-6.260;2023-09-18T12:40:44;7.87;;;0.90;;
71941;SDS011;59997;53.300;-6.260;2023-09-18T12:43:11;5.97;;;0.90;;
71941;SDS011;59997;53.300;-6.260;2023-09-18T12:45:40;4.90;;;0.93;;
71941;SDS011;59997;53.300;-6.260;2023-09-18T12:48:06;8.75;;;1.13;;
71941;SDS011;59997;53.300;-6.260;2023-09-18T12:50:32;4.23;;;0.70;;
71941;SDS011;59997;53.300;-6.260;2023-09-18T12:53:13;6.50;;;1.00;;
71941;SDS011;59997;53.300;-6.260;2023-09-18T12:55:40;7.25;;;0.70;;
71941;SDS011;59997;53.300;-6.260;2023-09-18T12:58:10;6.45;;;1.15;;
71941;SDS011;59997;53.300;-6.260;2023-09-18T13:00:36;6.40;;;0.90;;
71941;SDS011;59997;53.300;-6.260;2023-09-18T13:03:02;6.10;;;0.90;;
71941;SDS011;59997;53.300;-6.260;2023-09-18T13:05:29;4.60;;;0.80;;
71941;SDS011;59997;53.300;-6.260;2023-09-18T13:08:01;8.38;;;1.50;;
71941;SDS011;59997;53.300;-6.260;2023-09-18T13:10:40;3.90;;;0.70;;
71941;SDS011;59997;53.300;-6.260;2023-09-18T13:13:19;4.95;;;0.65;;
71941;SDS011;59997;53.300;-6.260;2023-09-18T13:15:46;4.60;;;0.73;;
71941;SDS011;59997;53.300;-6.260;2023-09-18T13:18:13;5.22;;;0.80;;
71941;SDS011;59997;53.300;-6.260;2023-09-18T13:20:42;3.97;;;0.65;;
71941;SDS011;59997;53.300;-6.260;2023-09-18T13:23:08;2.53;;;0.40;;
71941;SDS011;59997;53.300;-6.260;2023-09-18T13:25:38;3.97;;;0.50;;
71941;SDS011;59997;53.300;-6.260;2023-09-18T13:28:08;3.65;;;0.50;;
71941;SDS011;59997;53.300;-6.260;2023-09-18T13:30:35;4.15;;;0.63;;
71941;SDS011;59997;53.300;-6.260;2023-09-18T13:33:10;3.85;;;0.60;;
71941;SDS011;59997;53.300;-6.260;2023-09-18T13:35:39;3.80;;;0.60;;
71941;SDS011;59997;53.300;-6.260;2023-09-18T13:38:06;5.60;;;0.63;;
71941;SDS011;59997;53.300;-6.260;2023-09-18T13:40:36;3.80;;;0.45;;
71941;SDS011;59997;53.300;-6.260;2023-09-18T13:43:02;5.30;;;0.60;;
71941;SDS011;59997;53.300;-6.260;2023-09-18T13:45:33;4.35;;;0.70;;
71941;SDS011;59997;53.300;-6.260;2023-09-18T13:48:00;5.27;;;0.80;;
71941;SDS011;59997;53.300;-6.260;2023-09-18T13:50:26;5.70;;;0.85;;
71941;SDS011;59997;53.300;-6.260;2023-09-18T13:52:52;3.65;;;0.70;;
71941;SDS011;59997;53.300;-6.260;2023-09-18T13:55:18;5.70;;;0.63;;
71941;SDS011;59997;53.300;-6.260;2023-09-18T13:57:44;6.27;;;0.90;;
71941;SDS011;59997;53.300;-6.260;2023-09-18T14:00:10;5.47;;;0.50;;
71941;SDS011;59997;53.300;-6.260;2023-09-18T14:02:37;4.05;;;0.60;;
71941;SDS011;59997;53.300;-6.260;2023-09-18T14:05:07;4.90;;;0.68;;
71941;SDS011;59997;53.300;-6.260;2023-09-18T14:07:34;4.47;;;0.60;;
71941;SDS011;59997;53.300;-6.260;2023-09-18T14:09:59;4.73;;;0.80;;
71941;SDS011;59997;53.300;-6.260;2023-09-18T14:12:28;5.50;;;0.80;;
71941;SDS011;59997;53.300;-6.260;2023-09-18T14:14:55;4.35;;;0.70;;
71941;SDS011;59997;53.300;-6.260;2023-09-18T14:17:21;4.23;;;0.60;;
71941;SDS011;59997;53.300;-6.260;2023-09-18T14:19:46;5.07;;;0.70;;
71941;SDS011;59997;53.300;-6.260;2023-09-18T14:22:12;5.70;;;0.60;;
71941;SDS011;59997;53.300;-6.260;2023-09-18T14:24:39;6.83;;;1.00;;
71941;SDS011;59997;53.300;-6.260;2023-09-18T14:27:05;5.93;;;0.82;;
71941;SDS011;59997;53.300;-6.260;2023-09-18T14:29:31;4.88;;;0.65;;
71941;SDS011;59997;53.300;-6.260;2023-09-18T14:31:58;6.00;;;0.80;;
71941;SDS011;59997;53.300;-6.260;2023-09-18T14:34:28;6.38;;;0.80;;
71941;SDS011;59997;53.300;-6.260;2023-09-18T14:36:55;5.60;;;0.47;;
71941;SDS011;59997;53.300;-6.260;2023-09-18T14:39:20;5.78;;;0.70;;
71941;SDS011;59997;53.300;-6.260;2023-09-18T14:41:46;5.07;;;0.67;;
71941;SDS011;59997;53.300;-6.260;2023-09-18T14:44:12;6.47;;;0.80;;
71941;SDS011;59997;53.300;-6.260;2023-09-18T14:46:38;6.22;;;0.80;;
71941;SDS011;59997;53.300;-6.260;2023-09-18T14:49:04;7.47;;;0.77;;